createdAt,value
2022-10-21T00:00:54.234Z,157290.91
2022-10-21T00:03:36.608Z,157273.69
2022-10-21T00:06:05.143Z,157260.41
2022-10-21T00:08:32.790Z,157244.44
2022-10-21T00:11:01.764Z,157236.50
2022-10-21T00:13:31.001Z,157227.22
2022-10-21T00:16:08.931Z,157203.38
2022-10-21T00:18:37.692Z,157156.91
2022-10-21T00:21:10.918Z,157114.47
2022-10-21T00:23:38.304Z,157089.25
2022-10-21T00:26:06.540Z,157074.69
2022-10-21T00:28:33.858Z,157034.88
2022-10-21T00:31:01.579Z,157034.88
2022-10-21T00:33:29.454Z,157018.97
2022-10-21T00:35:59.075Z,156985.81
2022-10-21T00:38:26.453Z,156989.81
2022-10-21T00:40:53.963Z,156997.75
2022-10-21T00:43:21.585Z,156983.19
2022-10-21T00:45:51.189Z,156976.56
2022-10-21T00:48:30.313Z,156989.81
2022-10-21T00:51:01.679Z,156979.19
2022-10-21T00:53:29.333Z,156960.66
2022-10-21T00:56:00.633Z,156957.97
2022-10-21T00:58:30.629Z,156969.91
2022-10-21T01:01:00.981Z,156969.91
2022-10-21T01:03:29.867Z,156947.41
2022-10-21T01:05:59.911Z,156961.97
2022-10-21T01:08:28.224Z,156943.41
2022-10-21T01:10:56.220Z,156950.03
2022-10-21T01:13:40.210Z,156916.94
2022-10-21T01:16:34.757Z,156873.16
2022-10-21T01:19:20.814Z,156842.69
2022-10-21T01:21:54.395Z,156838.69
2022-10-21T01:25:06.559Z,156861.25
2022-10-21T01:27:38.842Z,156838.69
2022-10-21T01:30:31.150Z,156857.25
2022-10-21T01:33:27.958Z,156889.09
2022-10-21T01:36:01.527Z,156889.09
2022-10-21T01:38:48.199Z,156900.97
2022-10-21T01:41:33.860Z,156900.97
2022-10-21T01:44:07.718Z,156877.16
2022-10-21T01:46:42.231Z,156887.72
2022-10-21T01:49:34.116Z,156881.09
2022-10-21T01:52:02.583Z,156858.56
2022-10-21T01:54:36.002Z,156832.06
2022-10-21T01:57:05.005Z,156866.53
2022-10-21T01:59:33.159Z,156867.88
2022-10-21T02:02:02.334Z,156893.03
2022-10-21T02:04:31.174Z,156898.34
2022-10-21T02:06:58.407Z,156912.94
2022-10-21T02:09:26.183Z,156904.97
2022-10-21T02:11:58.069Z,156934.13
2022-10-21T02:14:46.721Z,156936.78
2022-10-21T02:17:17.301Z,156942.09
2022-10-21T02:19:46.561Z,156948.72
2022-10-21T02:22:17.912Z,156975.22
2022-10-21T02:25:17.279Z,156988.50
2022-10-21T02:27:44.964Z,156977.88
2022-10-21T02:30:12.615Z,156995.13
2022-10-21T02:32:45.940Z,157009.72
2022-10-21T02:35:32.320Z,157008.41
2022-10-21T02:38:09.799Z,157005.72
2022-10-21T02:40:40.731Z,157021.66
2022-10-21T02:43:14.014Z,157040.19
2022-10-21T02:45:42.150Z,157044.19
2022-10-21T02:48:09.355Z,157045.50
2022-10-21T02:50:37.096Z,157054.78
2022-10-21T02:53:04.445Z,157081.31
2022-10-21T02:55:31.944Z,157086.63
2022-10-21T02:57:59.182Z,157109.16
2022-10-21T03:00:30.731Z,157123.75
2022-10-21T03:03:00.385Z,157111.78
2022-10-21T03:05:27.999Z,157080.00
2022-10-21T03:07:55.371Z,157070.72
2022-10-21T03:10:23.060Z,157111.78
2022-10-21T03:12:50.462Z,157109.16
2022-10-21T03:15:18.041Z,157121.09
2022-10-21T03:17:45.344Z,157121.09
2022-10-21T03:20:12.901Z,157125.06
2022-10-21T03:22:40.125Z,157113.16
2022-10-21T03:25:08.781Z,157109.16
2022-10-21T03:27:36.014Z,157110.47
2022-10-21T03:30:06.652Z,157103.84
2022-10-21T03:32:34.254Z,157107.84
2022-10-21T03:35:02.081Z,157111.78
2022-10-21T03:37:29.290Z,157119.78
2022-10-21T03:39:56.874Z,157103.84
2022-10-21T03:42:24.199Z,157090.56
2022-10-21T03:44:51.684Z,157101.22
2022-10-21T03:47:19.135Z,157095.88
2022-10-21T03:49:46.971Z,157111.78
2022-10-21T03:52:14.357Z,157118.44
2022-10-21T03:54:41.874Z,157113.16
2022-10-21T03:57:09.374Z,157097.22
2022-10-21T03:59:36.909Z,157114.47
2022-10-21T04:02:04.204Z,157105.16
2022-10-21T04:04:31.900Z,157106.53
2022-10-21T04:06:59.169Z,157121.09
2022-10-21T04:09:26.804Z,157122.44
2022-10-21T04:11:54.264Z,157101.22
2022-10-21T04:14:21.944Z,157097.22
2022-10-21T04:16:53.614Z,157114.47
2022-10-21T04:19:29.743Z,157103.84
2022-10-21T04:21:57.241Z,157110.47
2022-10-21T04:24:24.899Z,157099.91
2022-10-21T04:26:52.129Z,157109.16
2022-10-21T04:29:19.699Z,157126.44
2022-10-21T04:32:47.069Z,157111.78
2022-10-21T04:35:15.063Z,157098.56
2022-10-21T04:37:43.406Z,157082.63
2022-10-21T04:40:11.433Z,157074.69
2022-10-21T04:42:39.074Z,157076.00
2022-10-21T04:45:07.266Z,157064.09
2022-10-21T04:47:34.730Z,157097.22
2022-10-21T04:50:02.332Z,157106.53
2022-10-21T04:52:29.811Z,157126.44
2022-10-21T04:54:57.394Z,157117.09
2022-10-21T04:57:24.644Z,157129.06
2022-10-21T04:59:52.210Z,157114.47
2022-10-21T05:02:21.713Z,157125.06
2022-10-21T05:04:52.086Z,157148.97
2022-10-21T05:07:19.393Z,157151.59
2022-10-21T05:09:46.944Z,157146.28
2022-10-21T05:12:14.363Z,157164.88
2022-10-21T05:14:41.955Z,157138.31
2022-10-21T05:17:09.403Z,157166.19
2022-10-21T05:19:37.092Z,157167.50
2022-10-21T05:22:04.492Z,157178.13
2022-10-21T05:24:31.965Z,157178.13
2022-10-21T05:26:59.482Z,157170.19
2022-10-21T05:29:27.185Z,157156.91
2022-10-21T05:31:54.570Z,157166.19
2022-10-21T05:34:22.411Z,157171.50
2022-10-21T05:36:49.870Z,157175.50
2022-10-21T05:39:17.453Z,157178.13
2022-10-21T05:41:47.777Z,157208.63
2022-10-21T05:44:16.408Z,157191.41
2022-10-21T05:46:43.948Z,157211.31
2022-10-21T05:49:11.563Z,157213.94
2022-10-21T05:51:39.152Z,157229.84
2022-10-21T05:54:06.799Z,157267.03
2022-10-21T05:56:35.006Z,157260.41
2022-10-21T05:59:05.438Z,157253.78
2022-10-21T06:01:35.552Z,157260.41
2022-10-21T06:04:03.924Z,157261.72
2022-10-21T06:06:31.434Z,157263.03
2022-10-21T06:08:59.218Z,157261.72
2022-10-21T06:11:27.236Z,157271.00
2022-10-21T06:13:56.508Z,157281.63
2022-10-21T06:16:25.693Z,157261.72
2022-10-21T06:18:53.137Z,157239.19
2022-10-21T06:21:21.627Z,157277.63
2022-10-21T06:23:53.699Z,157259.03
2022-10-21T06:26:21.159Z,157273.69
2022-10-21T06:28:48.615Z,157275.00
2022-10-21T06:31:18.414Z,157316.16
2022-10-21T06:33:45.947Z,157313.47
2022-10-21T06:36:14.040Z,157324.09
2022-10-21T06:38:42.485Z,157321.41
2022-10-21T06:41:13.584Z,157329.41
2022-10-21T06:43:44.484Z,157326.75
2022-10-21T06:46:13.973Z,157383.78
2022-10-21T06:48:42.199Z,157398.41
2022-10-21T06:51:15.603Z,157447.50
2022-10-21T06:53:44.161Z,157516.56
2022-10-21T06:56:14.650Z,157560.38
2022-10-21T06:58:49.224Z,157602.94
2022-10-21T07:01:34.555Z,157671.94
2022-10-21T07:04:10.330Z,157719.78
2022-10-21T07:06:37.925Z,157745.06
2022-10-21T07:09:07.004Z,157757.03
2022-10-21T07:11:34.486Z,157731.75
2022-10-21T07:14:02.280Z,157761.00
2022-10-21T07:16:32.021Z,157783.56
2022-10-21T07:19:00.045Z,157827.47
2022-10-21T07:21:29.762Z,157854.00
2022-10-21T07:23:59.276Z,157843.41
2022-10-21T07:26:29.349Z,157834.09
2022-10-21T07:28:58.686Z,157863.34
2022-10-21T07:31:26.842Z,157883.28
2022-10-21T07:33:54.581Z,157855.38
2022-10-21T07:36:25.094Z,157897.91
2022-10-21T07:38:54.292Z,157959.03
2022-10-21T07:41:25.406Z,158013.56
2022-10-21T07:43:53.823Z,158020.19
2022-10-21T07:46:22.466Z,158024.22
2022-10-21T07:48:50.516Z,158034.81
2022-10-21T07:51:21.363Z,158020.19
2022-10-21T07:53:50.772Z,158018.88
2022-10-21T07:56:21.012Z,158045.50
2022-10-21T07:58:49.002Z,158038.84
2022-10-21T08:01:17.457Z,157989.63
2022-10-21T08:03:46.491Z,157980.28
2022-10-21T08:06:15.957Z,157980.28
2022-10-21T08:08:43.986Z,157956.38
2022-10-21T08:11:11.993Z,157945.72
2022-10-21T08:13:41.606Z,157936.44
2022-10-21T08:16:08.961Z,157913.84
2022-10-21T08:18:36.654Z,157911.16
2022-10-21T08:21:05.028Z,157937.75
2022-10-21T08:23:32.623Z,157948.41
2022-10-21T08:26:01.397Z,157916.47
2022-10-21T08:28:30.573Z,157944.41
2022-10-21T08:31:09.044Z,157961.72
2022-10-21T08:33:37.198Z,157992.28
2022-10-21T08:36:09.760Z,158018.88
2022-10-21T08:38:37.541Z,158014.88
2022-10-21T08:41:12.463Z,158034.81
2022-10-21T08:43:40.151Z,158076.06
2022-10-21T08:46:21.181Z,158092.00
2022-10-21T08:48:56.120Z,158122.63
2022-10-21T08:51:28.624Z,158163.88
2022-10-21T08:53:58.546Z,158198.47
2022-10-21T08:56:26.312Z,158245.06
2022-10-21T08:58:53.818Z,158249.06
2022-10-21T09:01:39.751Z,158238.41
2022-10-21T09:04:24.394Z,158237.09
2022-10-21T09:07:19.726Z,158246.38
2022-10-21T09:09:53.709Z,158225.09
2022-10-21T09:12:59.782Z,158231.75
2022-10-21T09:15:45.749Z,158238.41
2022-10-21T09:18:26.671Z,158250.41
2022-10-21T09:21:08.871Z,158237.09
2022-10-21T09:23:56.540Z,158227.78
2022-10-21T09:26:56.831Z,158265.03
2022-10-21T09:29:33.001Z,158294.31
2022-10-21T09:35:38.649Z,158364.84
2022-10-21T09:38:33.283Z,158390.16
2022-10-21T09:41:03.592Z,158431.41
2022-10-21T09:43:31.652Z,158479.31
2022-10-21T09:45:59.510Z,158525.94
2022-10-21T09:48:33.726Z,158544.59
2022-10-21T09:51:11.310Z,158580.56
2022-10-21T09:53:51.686Z,158653.78
2022-10-21T09:56:25.029Z,158687.09
2022-10-21T09:59:09.381Z,158661.78
2022-10-21T10:01:39.312Z,158557.91
2022-10-21T10:04:30.874Z,158545.91
2022-10-21T10:07:01.386Z,158605.81
2022-10-21T10:09:31.009Z,158591.19
2022-10-21T10:12:03.819Z,158633.81
2022-10-21T10:14:32.912Z,158647.13
2022-10-21T10:17:33.900Z,158652.47
2022-10-21T10:20:29.010Z,158655.13
2022-10-21T10:22:58.437Z,158691.13
2022-10-21T10:25:31.039Z,158724.41
2022-10-21T10:39:51.719Z,158931.06
2022-10-21T10:42:34.545Z,158931.06
2022-10-21T10:45:13.148Z,158925.72
2022-10-21T10:47:57.735Z,158917.72
2022-10-21T10:50:45.425Z,158927.03
2022-10-21T10:53:38.552Z,158936.34
2022-10-21T10:56:05.933Z,158920.38
2022-10-21T10:58:37.035Z,158903.06
2022-10-21T11:01:10.789Z,158900.38
2022-10-21T11:03:45.463Z,158911.06
2022-10-21T11:06:16.835Z,158931.06
2022-10-21T11:08:48.599Z,158864.38
2022-10-21T11:11:26.229Z,158889.72
2022-10-21T11:13:53.962Z,158920.38
2022-10-21T11:16:44.925Z,158957.69
2022-10-21T11:19:30.341Z,159005.69
2022-10-21T11:22:28.691Z,159055.03
2022-10-21T11:24:59.791Z,159084.38
2022-10-21T11:27:45.690Z,159116.41
2022-10-21T11:31:04.490Z,159101.72
2022-10-21T11:33:47.591Z,159155.06
2022-10-21T11:36:37.620Z,159203.09
2022-10-21T11:39:42.343Z,159245.78
2022-10-21T11:42:18.779Z,159287.19
2022-10-21T11:45:01.253Z,159335.25
2022-10-21T11:48:04.400Z,159393.97
2022-10-21T11:50:38.345Z,159400.63
2022-10-21T11:53:32.729Z,159408.63
2022-10-21T11:56:22.799Z,159446.03
2022-10-21T11:59:12.257Z,159440.69
2022-10-21T12:01:56.656Z,159379.28
2022-10-21T12:04:46.943Z,159372.59
2022-10-21T12:07:32.841Z,159363.28
2022-10-21T12:10:05.454Z,159375.31
2022-10-21T12:12:36.309Z,159345.94
2022-10-21T12:15:21.741Z,159297.91
2022-10-21T12:17:49.799Z,159267.13
2022-10-21T12:20:23.845Z,159264.47
2022-10-21T12:22:57.675Z,159263.16
2022-10-21T12:25:37.661Z,159261.81
2022-10-21T12:28:12.015Z,159269.81
2022-10-21T12:31:07.349Z,159284.56
2022-10-21T12:33:43.908Z,159255.16
2022-10-21T12:36:24.878Z,159255.16
2022-10-21T12:38:54.527Z,159257.81
2022-10-21T12:41:24.913Z,159259.13
2022-10-21T12:43:54.283Z,159255.16
2022-10-21T12:46:28.189Z,159260.44
2022-10-21T12:48:55.745Z,159225.75
2022-10-21T12:51:28.984Z,159225.75
2022-10-21T12:54:02.333Z,159217.75
2022-10-21T12:56:31.755Z,159199.13
2022-10-21T12:59:03.216Z,159224.44
2022-10-21T13:01:43.308Z,159211.09
2022-10-21T13:04:32.096Z,159207.09
2022-10-21T13:07:09.358Z,159176.41
2022-10-21T13:09:40.770Z,159177.78
2022-10-21T13:12:11.052Z,159177.78
2022-10-21T13:14:49.560Z,159161.72
2022-10-21T13:17:22.953Z,159161.72
2022-10-21T13:19:54.238Z,159145.72
2022-10-21T13:22:32.001Z,159145.72
2022-10-21T13:25:22.888Z,159133.72
2022-10-21T13:28:16.883Z,159143.09
2022-10-21T13:30:50.376Z,159137.72
2022-10-21T13:33:38.465Z,159141.75
2022-10-21T13:36:13.525Z,159147.06
2022-10-21T13:38:50.061Z,159149.75
2022-10-21T13:41:27.451Z,159147.06
2022-10-21T13:44:04.305Z,159149.75
2022-10-21T13:46:39.122Z,159144.41
2022-10-21T13:49:32.463Z,159103.06
2022-10-21T13:52:00.008Z,159104.38
2022-10-21T13:54:35.625Z,159104.38
2022-10-21T13:57:07.747Z,159123.06
2022-10-21T13:59:35.718Z,159101.72
2022-10-21T14:02:04.208Z,159099.03
2022-10-21T14:04:36.018Z,159103.06
2022-10-21T14:07:09.477Z,159123.06
2022-10-21T14:09:43.554Z,159103.06
2022-10-21T14:12:28.471Z,159093.72
2022-10-21T14:14:58.279Z,159089.72
2022-10-21T14:17:27.481Z,159081.72
2022-10-21T14:20:02.913Z,159067.03
2022-10-21T14:22:32.890Z,159080.38
2022-10-21T14:25:04.252Z,159053.69
2022-10-21T14:27:34.578Z,159061.69
2022-10-21T14:30:05.830Z,159044.38
2022-10-21T14:32:34.110Z,159057.72
2022-10-21T14:35:10.884Z,159041.69
2022-10-21T14:37:55.065Z,159039.03
2022-10-21T14:40:38.424Z,159035.03
2022-10-21T14:43:17.819Z,159044.38
2022-10-21T14:45:48.941Z,159047.03
2022-10-21T14:48:30.680Z,159064.41
2022-10-21T14:51:11.348Z,159064.41
2022-10-21T14:53:59.766Z,159035.03
2022-10-21T14:56:34.073Z,159060.38
2022-10-21T14:59:07.594Z,159057.72
2022-10-21T15:01:35.510Z,159023.06
2022-10-21T15:04:03.464Z,159065.72
2022-10-21T15:06:36.078Z,159061.69
2022-10-21T15:09:18.202Z,159067.03
2022-10-21T15:11:49.106Z,159063.03
2022-10-21T15:14:28.997Z,159052.38
2022-10-21T15:16:59.560Z,159052.38
2022-10-21T15:19:48.388Z,159048.34
2022-10-21T15:22:24.994Z,159048.34
2022-10-21T15:24:53.095Z,159044.38
2022-10-21T15:27:42.723Z,159047.03
2022-10-21T15:30:13.521Z,159067.03
2022-10-21T15:32:41.468Z,159071.06
2022-10-21T15:35:21.341Z,159060.38
2022-10-21T15:37:53.357Z,159052.38
2022-10-21T15:40:22.109Z,159067.03
2022-10-21T15:42:49.774Z,159071.06
2022-10-21T15:45:20.030Z,159065.72
2022-10-21T15:47:53.982Z,159053.69
2022-10-21T15:50:27.013Z,159061.69
2022-10-21T15:55:21.699Z,159036.41
2022-10-21T15:57:49.270Z,159024.38
2022-10-21T16:00:19.200Z,159048.34
2022-10-21T16:02:47.564Z,159021.69
2022-10-21T16:05:17.074Z,159028.34
2022-10-21T16:07:45.151Z,159029.72
2022-10-21T16:10:23.024Z,159025.69
2022-10-21T16:12:51.256Z,159036.41
2022-10-21T16:15:20.229Z,159021.69
2022-10-21T16:17:51.060Z,159007.00
2022-10-21T16:20:21.998Z,159004.38
2022-10-21T16:22:49.955Z,159001.72
2022-10-21T16:25:18.281Z,159003.03
2022-10-21T16:28:01.683Z,158991.03
2022-10-21T16:30:34.601Z,158992.34
2022-10-21T16:33:02.721Z,158975.03
2022-10-21T16:35:30.058Z,158964.34
2022-10-21T16:37:58.359Z,158969.69
2022-10-21T16:40:28.518Z,158964.34
2022-10-21T16:42:56.146Z,158964.34
2022-10-21T16:45:24.690Z,158949.69
2022-10-21T16:47:56.369Z,158940.38
2022-10-21T16:50:26.388Z,158957.69
2022-10-21T16:52:54.282Z,158947.03
2022-10-21T16:55:21.906Z,158957.69
2022-10-21T16:57:49.800Z,158940.38
2022-10-21T17:00:18.130Z,158932.38
2022-10-21T17:02:48.471Z,158943.03
2022-10-21T17:05:15.988Z,158925.72
2022-10-21T17:07:43.721Z,158957.69
2022-10-21T17:10:11.142Z,158939.06
2022-10-21T17:12:38.827Z,158933.72
2022-10-21T17:15:07.107Z,158935.03
2022-10-21T17:17:36.777Z,158936.34
2022-10-21T17:20:04.783Z,158925.72
2022-10-21T17:22:32.561Z,158929.69
2022-10-21T17:25:00.120Z,158941.69
2022-10-21T17:27:27.758Z,158923.00
2022-10-21T17:29:55.443Z,158923.00
2022-10-21T17:32:24.983Z,158927.03
2022-10-21T17:34:52.456Z,158920.38
2022-10-21T17:37:20.669Z,158904.38
2022-10-21T17:39:48.201Z,158912.38
2022-10-21T17:42:20.644Z,158900.38
2022-10-21T17:44:49.485Z,158883.06
2022-10-21T17:47:17.549Z,158867.09
2022-10-21T17:49:44.940Z,158885.72
2022-10-21T17:52:12.558Z,158880.38
2022-10-21T17:54:39.825Z,158851.03
2022-10-21T17:57:07.754Z,158865.72
2022-10-21T17:59:35.381Z,158848.41
2022-10-21T18:02:03.154Z,158837.72
2022-10-21T18:04:31.986Z,158808.41
2022-10-21T18:06:59.628Z,158800.41
2022-10-21T18:09:27.086Z,158784.44
2022-10-21T18:11:54.883Z,158769.72
2022-10-21T18:14:22.315Z,158747.03
2022-10-21T18:16:49.952Z,158753.69
2022-10-21T18:19:17.339Z,158753.69
2022-10-21T18:21:45.160Z,158720.44
2022-10-21T18:24:12.901Z,158713.75
2022-10-21T18:26:41.264Z,158687.09
2022-10-21T18:29:09.050Z,158683.09
2022-10-21T18:31:37.664Z,158691.13
2022-10-21T18:34:06.575Z,158685.78
2022-10-21T18:36:34.703Z,158684.47
2022-10-21T18:39:02.387Z,158653.78
2022-10-21T18:41:30.660Z,158676.44
2022-10-21T18:44:01.489Z,158673.78
2022-10-21T18:46:30.077Z,158665.78
2022-10-21T18:48:58.178Z,158640.47
2022-10-21T18:51:26.023Z,158648.44
2022-10-21T18:53:53.907Z,158655.13
2022-10-21T18:56:24.482Z,158647.13
2022-10-21T18:58:52.726Z,158655.13
2022-10-21T19:01:21.675Z,158637.81
2022-10-21T19:03:53.991Z,158647.13
2022-10-21T19:06:40.214Z,158625.81
2022-10-21T19:09:13.455Z,158623.16
2022-10-21T19:11:42.272Z,158615.19
2022-10-21T19:14:13.029Z,158627.13
2022-10-21T19:16:43.112Z,158608.53
2022-10-21T19:19:11.142Z,158601.84
2022-10-21T19:21:39.174Z,158600.53
2022-10-21T19:24:07.267Z,158600.53
2022-10-21T19:26:37.093Z,158587.22
2022-10-21T19:29:13.499Z,158588.53
2022-10-21T19:31:42.404Z,158605.81
2022-10-21T19:34:16.625Z,158572.56
2022-10-21T19:36:44.669Z,158589.84
2022-10-21T19:39:12.254Z,158588.53
2022-10-21T19:41:40.402Z,158604.50
2022-10-21T19:44:08.885Z,158591.19
2022-10-21T19:46:37.498Z,158617.81
2022-10-21T19:49:08.090Z,158619.16
2022-10-21T19:51:36.141Z,158640.47
2022-10-21T19:54:05.284Z,158639.13
2022-10-21T19:56:35.448Z,158641.84
2022-10-21T19:59:05.405Z,158617.81
2022-10-21T20:01:34.502Z,158620.47
2022-10-21T20:04:02.886Z,158637.81
2022-10-21T20:06:33.507Z,158633.81
2022-10-21T20:09:07.778Z,158656.50
2022-10-21T20:11:36.370Z,158659.13
2022-10-21T20:14:04.774Z,158659.13
2022-10-21T20:16:38.582Z,158664.47
2022-10-21T20:19:07.179Z,158664.47
2022-10-21T20:21:36.350Z,158696.41
2022-10-21T20:24:04.485Z,158680.44
2022-10-21T20:26:32.665Z,158689.75
2022-10-21T20:29:02.156Z,158712.44
2022-10-21T20:31:30.415Z,158699.13
2022-10-21T20:33:58.362Z,158687.09
2022-10-21T20:36:29.326Z,158692.44
2022-10-21T20:38:58.998Z,158683.09
2022-10-21T20:41:34.350Z,158697.75
2022-10-21T20:44:02.957Z,158695.09
2022-10-21T20:46:36.314Z,158703.06
2022-10-21T20:49:04.717Z,158709.75
2022-10-21T20:51:32.896Z,158713.75
2022-10-21T20:54:03.271Z,158711.06
2022-10-21T20:56:36.393Z,158707.09
2022-10-21T20:59:05.416Z,158711.06
2022-10-21T21:01:35.526Z,158712.44
2022-10-21T21:04:06.162Z,158713.75
2022-10-21T21:06:39.242Z,158712.44
2022-10-21T21:09:43.760Z,158712.44
2022-10-21T21:11:55.090Z,158712.44
2022-10-21T21:14:22.325Z,158715.09
2022-10-21T21:16:50.119Z,158691.13
2022-10-21T21:19:19.594Z,158699.13
2022-10-21T21:21:47.145Z,158713.75
2022-10-21T21:24:14.565Z,158705.78
2022-10-21T21:26:42.382Z,158697.75
2022-10-21T21:29:09.751Z,158716.41
2022-10-21T21:31:38.637Z,158717.72
2022-10-21T21:34:24.123Z,158735.06
2022-10-21T21:37:07.040Z,158740.41
2022-10-21T21:39:39.240Z,158728.41
2022-10-21T21:42:19.557Z,158732.38
2022-10-21T21:45:00.547Z,158732.38
2022-10-21T21:47:41.096Z,158736.41
2022-10-21T21:50:15.341Z,158732.38
2022-10-21T21:52:48.817Z,158729.75
2022-10-21T21:55:32.826Z,158748.41
2022-10-21T21:58:17.176Z,158731.06
2022-10-21T22:00:48.887Z,158757.72
2022-10-21T22:07:25.772Z,158757.72
2022-10-21T22:10:15.650Z,158748.41
2022-10-21T22:12:59.078Z,158723.06
2022-10-21T22:16:05.834Z,158747.03
2022-10-21T22:18:47.036Z,158719.06
2022-10-21T22:21:27.134Z,158748.41
2022-10-21T22:24:07.447Z,158755.06
2022-10-21T22:26:40.398Z,158760.38
2022-10-21T22:32:14.058Z,158756.41
2022-10-21T22:34:44.346Z,158767.03
2022-10-21T22:37:20.759Z,158763.06
2022-10-21T22:39:52.014Z,158759.03
2022-10-21T22:42:25.322Z,158761.75
2022-10-21T22:44:58.250Z,158769.72
2022-10-21T22:47:28.200Z,158784.44
2022-10-21T22:49:59.544Z,158777.72
2022-10-21T22:52:30.067Z,158752.38
2022-10-21T22:55:00.588Z,158781.75
2022-10-21T22:57:29.170Z,158788.41
2022-10-21T22:59:57.547Z,158784.44
2022-10-21T23:02:27.633Z,158775.03
2022-10-21T23:04:57.386Z,158749.72
2022-10-21T23:07:36.227Z,158788.41
2022-10-21T23:10:33.462Z,158777.72
2022-10-21T23:13:04.579Z,158773.69
2022-10-21T23:15:43.760Z,158771.06
2022-10-21T23:18:15.160Z,158777.72
2022-10-21T23:20:52.790Z,158789.78
2022-10-21T23:23:27.553Z,158771.06
2022-10-21T23:25:59.553Z,158759.03
2022-10-21T23:28:27.259Z,158757.72
2022-10-21T23:30:55.009Z,158740.41
2022-10-21T23:33:23.399Z,158755.06
2022-10-21T23:35:51.470Z,158757.72
2022-10-21T23:38:19.123Z,158763.06
2022-10-21T23:40:46.709Z,158776.41
2022-10-21T23:43:14.045Z,158768.34
2022-10-21T23:45:41.385Z,158771.06
2022-10-21T23:48:08.733Z,158764.38
2022-10-21T23:50:37.945Z,158747.03
2022-10-21T23:53:08.394Z,158759.03
2022-10-21T23:55:36.262Z,158771.06
2022-10-21T23:58:03.764Z,158785.75
